sensor_id;sensor_type;location;lat;lon;timestamp;P1;durP1;ratioP1;P2;durP2;ratioP2
5493;SDS011;2769;49.864;8.656;2022-09-09T00:00:19;2.03;;;1.10;;
5493;SDS011;2769;49.864;8.656;2022-09-09T00:02:51;1.63;;;1.20;;
5493;SDS011;2769;49.864;8.656;2022-09-09T00:05:29;2.30;;;1.47;;
5493;SDS011;2769;49.864;8.656;2022-09-09T00:08:02;4.63;;;1.37;;
5493;SDS011;2769;49.864;8.656;2022-09-09T00:10:34;2.00;;;1.20;;
5493;SDS011;2769;49.864;8.656;2022-09-09T00:13:11;3.63;;;1.37;;
5493;SDS011;2769;49.864;8.656;2022-09-09T00:15:45;3.30;;;1.20;;
5493;SDS011;2769;49.864;8.656;2022-09-09T00:18:27;7.93;;;1.20;;
5493;SDS011;2769;49.864;8.656;2022-09-09T00:21:01;6.47;;;1.63;;
5493;SDS011;2769;49.864;8.656;2022-09-09T00:23:34;3.87;;;1.13;;
5493;SDS011;2769;49.864;8.656;2022-09-09T00:26:08;1.47;;;1.30;;
5493;SDS011;2769;49.864;8.656;2022-09-09T00:28:42;3.67;;;1.17;;
5493;SDS011;2769;49.864;8.656;2022-09-09T00:31:17;2.90;;;1.30;;
5493;SDS011;2769;49.864;8.656;2022-09-09T00:33:53;1.53;;;1.30;;
5493;SDS011;2769;49.864;8.656;2022-09-09T00:36:23;2.50;;;1.30;;
5493;SDS011;2769;49.864;8.656;2022-09-09T00:38:56;2.23;;;1.33;;
5493;SDS011;2769;49.864;8.656;2022-09-09T00:41:30;5.30;;;1.40;;
5493;SDS011;2769;49.864;8.656;2022-09-09T00:44:15;1.80;;;1.27;;
5493;SDS011;2769;49.864;8.656;2022-09-09T00:47:04;3.90;;;1.30;;
5493;SDS011;2769;49.864;8.656;2022-09-09T00:49:44;2.10;;;1.10;;
5493;SDS011;2769;49.864;8.656;2022-09-09T00:52:30;3.13;;;1.40;;
5493;SDS011;2769;49.864;8.656;2022-09-09T00:55:06;7.30;;;1.67;;
5493;SDS011;2769;49.864;8.656;2022-09-09T00:57:42;1.80;;;1.30;;
5493;SDS011;2769;49.864;8.656;2022-09-09T01:00:19;2.70;;;1.30;;
5493;SDS011;2769;49.864;8.656;2022-09-09T01:02:54;12.90;;;1.43;;
5493;SDS011;2769;49.864;8.656;2022-09-09T01:05:33;2.60;;;2.07;;
5493;SDS011;2769;49.864;8.656;2022-09-09T01:08:06;1.93;;;1.27;;
5493;SDS011;2769;49.864;8.656;2022-09-09T01:10:44;6.40;;;1.27;;
5493;SDS011;2769;49.864;8.656;2022-09-09T01:13:19;4.80;;;1.93;;
5493;SDS011;2769;49.864;8.656;2022-09-09T01:15:51;3.47;;;1.53;;
5493;SDS011;2769;49.864;8.656;2022-09-09T01:18:27;4.90;;;1.83;;
5493;SDS011;2769;49.864;8.656;2022-09-09T01:21:02;4.83;;;1.53;;
5493;SDS011;2769;49.864;8.656;2022-09-09T01:23:48;2.33;;;1.30;;
5493;SDS011;2769;49.864;8.656;2022-09-09T01:26:34;3.37;;;1.13;;
5493;SDS011;2769;49.864;8.656;2022-09-09T01:29:06;3.20;;;1.43;;
5493;SDS011;2769;49.864;8.656;2022-09-09T01:31:36;1.90;;;1.20;;
5493;SDS011;2769;49.864;8.656;2022-09-09T01:34:10;3.80;;;1.63;;
5493;SDS011;2769;49.864;8.656;2022-09-09T01:36:40;8.67;;;1.67;;
5493;SDS011;2769;49.864;8.656;2022-09-09T01:39:11;4.43;;;1.50;;
5493;SDS011;2769;49.864;8.656;2022-09-09T01:41:42;5.47;;;2.03;;
5493;SDS011;2769;49.864;8.656;2022-09-09T01:44:10;2.27;;;1.33;;
5493;SDS011;2769;49.864;8.656;2022-09-09T01:46:39;2.60;;;1.07;;
5493;SDS011;2769;49.864;8.656;2022-09-09T01:49:07;5.13;;;1.60;;
5493;SDS011;2769;49.864;8.656;2022-09-09T01:51:36;6.23;;;2.20;;
5493;SDS011;2769;49.864;8.656;2022-09-09T01:54:07;4.60;;;1.90;;
5493;SDS011;2769;49.864;8.656;2022-09-09T01:56:39;2.60;;;1.53;;
5493;SDS011;2769;49.864;8.656;2022-09-09T01:59:18;3.70;;;1.50;;
5493;SDS011;2769;49.864;8.656;2022-09-09T02:02:07;4.60;;;1.87;;
5493;SDS011;2769;49.864;8.656;2022-09-09T02:04:39;6.37;;;1.80;;
5493;SDS011;2769;49.864;8.656;2022-09-09T02:07:21;4.07;;;1.63;;
5493;SDS011;2769;49.864;8.656;2022-09-09T02:10:02;3.40;;;1.70;;
5493;SDS011;2769;49.864;8.656;2022-09-09T02:12:39;5.87;;;1.80;;
5493;SDS011;2769;49.864;8.656;2022-09-09T02:15:12;4.10;;;1.77;;
5493;SDS011;2769;49.864;8.656;2022-09-09T02:17:46;8.13;;;1.77;;
5493;SDS011;2769;49.864;8.656;2022-09-09T02:20:17;6.00;;;2.10;;
5493;SDS011;2769;49.864;8.656;2022-09-09T02:22:47;1.90;;;1.27;;
5493;SDS011;2769;49.864;8.656;2022-09-09T02:25:19;3.90;;;1.63;;
5493;SDS011;2769;49.864;8.656;2022-09-09T02:27:52;3.53;;;1.30;;
5493;SDS011;2769;49.864;8.656;2022-09-09T02:30:20;4.97;;;1.93;;
5493;SDS011;2769;49.864;8.656;2022-09-09T02:32:49;7.03;;;1.67;;
5493;SDS011;2769;49.864;8.656;2022-09-09T02:35:23;4.70;;;1.40;;
5493;SDS011;2769;49.864;8.656;2022-09-09T02:37:53;2.23;;;1.40;;
5493;SDS011;2769;49.864;8.656;2022-09-09T02:40:24;4.87;;;1.67;;
5493;SDS011;2769;49.864;8.656;2022-09-09T02:42:54;4.20;;;1.67;;
5493;SDS011;2769;49.864;8.656;2022-09-09T02:45:24;8.33;;;1.80;;
5493;SDS011;2769;49.864;8.656;2022-09-09T02:47:58;3.10;;;1.43;;
5493;SDS011;2769;49.864;8.656;2022-09-09T02:50:33;3.20;;;1.53;;
5493;SDS011;2769;49.864;8.656;2022-09-09T02:53:06;4.13;;;1.83;;
5493;SDS011;2769;49.864;8.656;2022-09-09T02:55:39;4.00;;;1.40;;
5493;SDS011;2769;49.864;8.656;2022-09-09T02:58:13;5.97;;;1.70;;
5493;SDS011;2769;49.864;8.656;2022-09-09T03:00:45;4.27;;;2.00;;
5493;SDS011;2769;49.864;8.656;2022-09-09T03:03:17;1.77;;;1.50;;
5493;SDS011;2769;49.864;8.656;2022-09-09T03:05:48;7.90;;;1.43;;
5493;SDS011;2769;49.864;8.656;2022-09-09T03:08:16;10.03;;;1.90;;
5493;SDS011;2769;49.864;8.656;2022-09-09T03:10:44;4.83;;;1.60;;
5493;SDS011;2769;49.864;8.656;2022-09-09T03:13:14;4.03;;;1.80;;
5493;SDS011;2769;49.864;8.656;2022-09-09T03:15:42;2.50;;;1.63;;
5493;SDS011;2769;49.864;8.656;2022-09-09T03:18:10;1.63;;;1.23;;
5493;SDS011;2769;49.864;8.656;2022-09-09T03:20:38;3.27;;;1.87;;
5493;SDS011;2769;49.864;8.656;2022-09-09T03:23:08;2.83;;;1.60;;
5493;SDS011;2769;49.864;8.656;2022-09-09T03:25:45;3.63;;;1.43;;
5493;SDS011;2769;49.864;8.656;2022-09-09T03:28:15;2.07;;;1.23;;
5493;SDS011;2769;49.864;8.656;2022-09-09T03:30:43;5.30;;;1.33;;
5493;SDS011;2769;49.864;8.656;2022-09-09T03:33:11;3.40;;;1.60;;
5493;SDS011;2769;49.864;8.656;2022-09-09T03:35:44;3.83;;;1.63;;
5493;SDS011;2769;49.864;8.656;2022-09-09T03:38:15;2.53;;;1.40;;
5493;SDS011;2769;49.864;8.656;2022-09-09T03:40:48;4.00;;;1.50;;
5493;SDS011;2769;49.864;8.656;2022-09-09T03:43:18;4.50;;;1.53;;
5493;SDS011;2769;49.864;8.656;2022-09-09T03:45:47;1.87;;;1.40;;
5493;SDS011;2769;49.864;8.656;2022-09-09T03:48:16;7.23;;;2.40;;
5493;SDS011;2769;49.864;8.656;2022-09-09T03:50:44;4.57;;;1.80;;
5493;SDS011;2769;49.864;8.656;2022-09-09T03:53:13;4.97;;;1.60;;
5493;SDS011;2769;49.864;8.656;2022-09-09T03:55:43;1.93;;;1.57;;
5493;SDS011;2769;49.864;8.656;2022-09-09T03:58:11;4.30;;;1.30;;
5493;SDS011;2769;49.864;8.656;2022-09-09T04:00:41;5.90;;;1.37;;
5493;SDS011;2769;49.864;8.656;2022-09-09T04:03:11;2.40;;;1.40;;
5493;SDS011;2769;49.864;8.656;2022-09-09T04:05:39;3.00;;;1.47;;
5493;SDS011;2769;49.864;8.656;2022-09-09T04:08:08;1.57;;;1.47;;
5493;SDS011;2769;49.864;8.656;2022-09-09T04:10:37;6.27;;;2.23;;
5493;SDS011;2769;49.864;8.656;2022-09-09T04:13:05;7.03;;;1.80;;
5493;SDS011;2769;49.864;8.656;2022-09-09T04:15:33;2.83;;;1.50;;
5493;SDS011;2769;49.864;8.656;2022-09-09T04:18:04;2.67;;;1.30;;
5493;SDS011;2769;49.864;8.656;2022-09-09T04:20:32;5.03;;;1.67;;
5493;SDS011;2769;49.864;8.656;2022-09-09T04:23:00;5.50;;;2.10;;
5493;SDS011;2769;49.864;8.656;2022-09-09T04:25:28;3.77;;;1.70;;
5493;SDS011;2769;49.864;8.656;2022-09-09T04:27:57;3.80;;;1.53;;
5493;SDS011;2769;49.864;8.656;2022-09-09T04:30:25;7.83;;;1.50;;
5493;SDS011;2769;49.864;8.656;2022-09-09T04:32:53;1.53;;;1.40;;
5493;SDS011;2769;49.864;8.656;2022-09-09T04:35:23;2.20;;;1.40;;
5493;SDS011;2769;49.864;8.656;2022-09-09T04:37:51;1.77;;;1.30;;
5493;SDS011;2769;49.864;8.656;2022-09-09T04:40:19;3.77;;;1.57;;
5493;SDS011;2769;49.864;8.656;2022-09-09T04:42:48;3.00;;;1.50;;
5493;SDS011;2769;49.864;8.656;2022-09-09T04:45:16;4.03;;;1.80;;
5493;SDS011;2769;49.864;8.656;2022-09-09T04:47:44;3.60;;;1.70;;
5493;SDS011;2769;49.864;8.656;2022-09-09T04:50:12;2.60;;;1.30;;
5493;SDS011;2769;49.864;8.656;2022-09-09T04:52:42;3.80;;;1.70;;
5493;SDS011;2769;49.864;8.656;2022-09-09T04:55:10;8.23;;;2.23;;
5493;SDS011;2769;49.864;8.656;2022-09-09T04:57:39;8.57;;;2.97;;
5493;SDS011;2769;49.864;8.656;2022-09-09T05:00:08;3.67;;;1.70;;
5493;SDS011;2769;49.864;8.656;2022-09-09T05:02:37;6.50;;;1.50;;
5493;SDS011;2769;49.864;8.656;2022-09-09T05:05:06;4.70;;;1.47;;
5493;SDS011;2769;49.864;8.656;2022-09-09T05:07:34;8.37;;;1.80;;
5493;SDS011;2769;49.864;8.656;2022-09-09T05:10:05;7.27;;;2.60;;
5493;SDS011;2769;49.864;8.656;2022-09-09T05:12:33;4.07;;;1.50;;
5493;SDS011;2769;49.864;8.656;2022-09-09T05:15:01;1.67;;;1.27;;
5493;SDS011;2769;49.864;8.656;2022-09-09T05:17:30;4.80;;;1.40;;
5493;SDS011;2769;49.864;8.656;2022-09-09T05:20:00;4.57;;;1.40;;
5493;SDS011;2769;49.864;8.656;2022-09-09T05:22:34;1.37;;;1.27;;
5493;SDS011;2769;49.864;8.656;2022-09-09T05:25:03;4.93;;;1.10;;
5493;SDS011;2769;49.864;8.656;2022-09-09T05:27:34;5.03;;;1.13;;
5493;SDS011;2769;49.864;8.656;2022-09-09T05:30:02;1.93;;;1.10;;
5493;SDS011;2769;49.864;8.656;2022-09-09T05:32:30;6.50;;;1.50;;
5493;SDS011;2769;49.864;8.656;2022-09-09T05:34:59;2.27;;;1.20;;
5493;SDS011;2769;49.864;8.656;2022-09-09T05:37:28;2.20;;;1.63;;
5493;SDS011;2769;49.864;8.656;2022-09-09T05:39:56;5.20;;;1.37;;
5493;SDS011;2769;49.864;8.656;2022-09-09T05:42:28;4.83;;;1.40;;
5493;SDS011;2769;49.864;8.656;2022-09-09T05:44:57;4.70;;;1.37;;
5493;SDS011;2769;49.864;8.656;2022-09-09T05:47:26;1.63;;;1.10;;
5493;SDS011;2769;49.864;8.656;2022-09-09T05:49:55;5.17;;;1.53;;
5493;SDS011;2769;49.864;8.656;2022-09-09T05:52:23;4.33;;;1.30;;
5493;SDS011;2769;49.864;8.656;2022-09-09T05:54:52;6.57;;;1.60;;
5493;SDS011;2769;49.864;8.656;2022-09-09T05:57:21;6.13;;;1.50;;
5493;SDS011;2769;49.864;8.656;2022-09-09T05:59:50;5.03;;;1.60;;
5493;SDS011;2769;49.864;8.656;2022-09-09T06:02:19;2.80;;;1.13;;
5493;SDS011;2769;49.864;8.656;2022-09-09T06:04:48;2.80;;;1.30;;
5493;SDS011;2769;49.864;8.656;2022-09-09T06:07:16;4.03;;;1.40;;
5493;SDS011;2769;49.864;8.656;2022-09-09T06:09:44;2.70;;;1.20;;
5493;SDS011;2769;49.864;8.656;2022-09-09T06:12:12;4.17;;;1.40;;
5493;SDS011;2769;49.864;8.656;2022-09-09T06:14:40;5.67;;;2.10;;
5493;SDS011;2769;49.864;8.656;2022-09-09T06:17:13;5.37;;;1.33;;
5493;SDS011;2769;49.864;8.656;2022-09-09T06:19:42;3.23;;;1.60;;
5493;SDS011;2769;49.864;8.656;2022-09-09T06:22:10;1.97;;;1.20;;
5493;SDS011;2769;49.864;8.656;2022-09-09T06:24:38;2.47;;;1.20;;
5493;SDS011;2769;49.864;8.656;2022-09-09T06:27:06;5.80;;;1.33;;
5493;SDS011;2769;49.864;8.656;2022-09-09T06:29:34;2.33;;;1.20;;
5493;SDS011;2769;49.864;8.656;2022-09-09T06:32:02;7.60;;;1.20;;
5493;SDS011;2769;49.864;8.656;2022-09-09T06:34:32;1.93;;;1.23;;
5493;SDS011;2769;49.864;8.656;2022-09-09T06:37:01;6.70;;;1.40;;
5493;SDS011;2769;49.864;8.656;2022-09-09T06:39:30;2.83;;;1.20;;
5493;SDS011;2769;49.864;8.656;2022-09-09T06:41:58;5.33;;;1.40;;
5493;SDS011;2769;49.864;8.656;2022-09-09T06:44:26;3.77;;;1.57;;
5493;SDS011;2769;49.864;8.656;2022-09-09T06:47:01;4.13;;;1.60;;
5493;SDS011;2769;49.864;8.656;2022-09-09T06:49:29;5.93;;;1.03;;
5493;SDS011;2769;49.864;8.656;2022-09-09T06:51:59;4.23;;;1.30;;
5493;SDS011;2769;49.864;8.656;2022-09-09T06:54:27;5.33;;;1.13;;
5493;SDS011;2769;49.864;8.656;2022-09-09T06:56:55;5.13;;;1.40;;
5493;SDS011;2769;49.864;8.656;2022-09-09T06:59:23;1.83;;;1.23;;
5493;SDS011;2769;49.864;8.656;2022-09-09T07:01:51;3.73;;;1.47;;
5493;SDS011;2769;49.864;8.656;2022-09-09T07:04:21;1.63;;;1.30;;
5493;SDS011;2769;49.864;8.656;2022-09-09T07:06:51;5.47;;;1.57;;
5493;SDS011;2769;49.864;8.656;2022-09-09T07:09:21;6.33;;;1.83;;
5493;SDS011;2769;49.864;8.656;2022-09-09T07:11:50;8.00;;;1.43;;
5493;SDS011;2769;49.864;8.656;2022-09-09T07:14:19;4.90;;;1.20;;
5493;SDS011;2769;49.864;8.656;2022-09-09T07:16:48;2.50;;;1.30;;
5493;SDS011;2769;49.864;8.656;2022-09-09T07:19:16;3.57;;;1.50;;
5493;SDS011;2769;49.864;8.656;2022-09-09T07:21:44;6.27;;;1.70;;
5493;SDS011;2769;49.864;8.656;2022-09-09T07:24:13;7.80;;;1.60;;
5493;SDS011;2769;49.864;8.656;2022-09-09T07:26:43;2.70;;;1.53;;
5493;SDS011;2769;49.864;8.656;2022-09-09T07:29:12;2.40;;;1.33;;
5493;SDS011;2769;49.864;8.656;2022-09-09T07:31:45;2.83;;;1.20;;
5493;SDS011;2769;49.864;8.656;2022-09-09T07:34:13;2.60;;;1.30;;
5493;SDS011;2769;49.864;8.656;2022-09-09T07:36:41;1.50;;;1.40;;
5493;SDS011;2769;49.864;8.656;2022-09-09T07:39:10;4.70;;;1.20;;
5493;SDS011;2769;49.864;8.656;2022-09-09T07:41:40;2.43;;;1.37;;
5493;SDS011;2769;49.864;8.656;2022-09-09T07:44:12;3.50;;;1.37;;
5493;SDS011;2769;49.864;8.656;2022-09-09T07:46:41;2.50;;;1.43;;
5493;SDS011;2769;49.864;8.656;2022-09-09T07:49:11;4.90;;;1.83;;
5493;SDS011;2769;49.864;8.656;2022-09-09T07:51:40;4.17;;;1.57;;
5493;SDS011;2769;49.864;8.656;2022-09-09T07:54:11;3.10;;;1.20;;
5493;SDS011;2769;49.864;8.656;2022-09-09T07:56:40;13.23;;;1.87;;
5493;SDS011;2769;49.864;8.656;2022-09-09T07:59:10;10.67;;;1.77;;
5493;SDS011;2769;49.864;8.656;2022-09-09T08:01:39;4.30;;;1.57;;
5493;SDS011;2769;49.864;8.656;2022-09-09T08:04:10;4.57;;;1.60;;
5493;SDS011;2769;49.864;8.656;2022-09-09T08:06:45;3.33;;;1.50;;
5493;SDS011;2769;49.864;8.656;2022-09-09T08:09:14;4.50;;;1.30;;
5493;SDS011;2769;49.864;8.656;2022-09-09T08:11:43;4.67;;;1.40;;
5493;SDS011;2769;49.864;8.656;2022-09-09T08:14:13;11.13;;;1.70;;
5493;SDS011;2769;49.864;8.656;2022-09-09T08:16:42;6.87;;;2.10;;
5493;SDS011;2769;49.864;8.656;2022-09-09T08:19:11;5.67;;;1.77;;
5493;SDS011;2769;49.864;8.656;2022-09-09T08:21:41;7.53;;;2.00;;
5493;SDS011;2769;49.864;8.656;2022-09-09T08:24:10;3.47;;;1.40;;
5493;SDS011;2769;49.864;8.656;2022-09-09T08:26:41;3.20;;;1.73;;
5493;SDS011;2769;49.864;8.656;2022-09-09T08:29:12;3.30;;;1.40;;
5493;SDS011;2769;49.864;8.656;2022-09-09T08:31:42;2.90;;;1.60;;
5493;SDS011;2769;49.864;8.656;2022-09-09T08:34:11;4.60;;;1.43;;
5493;SDS011;2769;49.864;8.656;2022-09-09T08:36:40;5.20;;;1.40;;
5493;SDS011;2769;49.864;8.656;2022-09-09T08:39:10;4.93;;;1.67;;
5493;SDS011;2769;49.864;8.656;2022-09-09T08:41:42;5.07;;;1.80;;
5493;SDS011;2769;49.864;8.656;2022-09-09T08:44:31;5.80;;;1.90;;
5493;SDS011;2769;49.864;8.656;2022-09-09T08:47:16;5.37;;;1.90;;
5493;SDS011;2769;49.864;8.656;2022-09-09T08:50:12;5.80;;;1.73;;
5493;SDS011;2769;49.864;8.656;2022-09-09T08:52:49;7.70;;;1.90;;
5493;SDS011;2769;49.864;8.656;2022-09-09T08:55:26;5.50;;;1.67;;
5493;SDS011;2769;49.864;8.656;2022-09-09T08:58:04;2.20;;;1.20;;
5493;SDS011;2769;49.864;8.656;2022-09-09T09:00:40;5.80;;;1.63;;
5493;SDS011;2769;49.864;8.656;2022-09-09T09:03:15;6.80;;;1.90;;
5493;SDS011;2769;49.864;8.656;2022-09-09T09:05:51;4.10;;;1.93;;
5493;SDS011;2769;49.864;8.656;2022-09-09T09:08:28;5.57;;;1.83;;
5493;SDS011;2769;49.864;8.656;2022-09-09T09:11:04;6.27;;;1.50;;
5493;SDS011;2769;49.864;8.656;2022-09-09T09:13:34;13.00;;;1.90;;
5493;SDS011;2769;49.864;8.656;2022-09-09T09:16:13;6.73;;;1.70;;
5493;SDS011;2769;49.864;8.656;2022-09-09T09:18:47;6.47;;;1.73;;
5493;SDS011;2769;49.864;8.656;2022-09-09T09:21:16;7.93;;;1.80;;
5493;SDS011;2769;49.864;8.656;2022-09-09T09:23:52;5.27;;;1.50;;
5493;SDS011;2769;49.864;8.656;2022-09-09T09:26:23;5.90;;;1.83;;
5493;SDS011;2769;49.864;8.656;2022-09-09T09:28:56;12.70;;;2.00;;
5493;SDS011;2769;49.864;8.656;2022-09-09T09:31:28;7.43;;;1.83;;
5493;SDS011;2769;49.864;8.656;2022-09-09T09:33:56;7.80;;;2.07;;
5493;SDS011;2769;49.864;8.656;2022-09-09T09:36:32;4.57;;;1.43;;
5493;SDS011;2769;49.864;8.656;2022-09-09T09:39:02;7.30;;;1.60;;
5493;SDS011;2769;49.864;8.656;2022-09-09T09:41:51;6.33;;;1.50;;
5493;SDS011;2769;49.864;8.656;2022-09-09T09:44:23;4.70;;;1.67;;
5493;SDS011;2769;49.864;8.656;2022-09-09T09:47:05;6.00;;;2.20;;
5493;SDS011;2769;49.864;8.656;2022-09-09T09:49:34;5.33;;;1.20;;
5493;SDS011;2769;49.864;8.656;2022-09-09T09:52:02;6.20;;;1.60;;
5493;SDS011;2769;49.864;8.656;2022-09-09T09:54:32;3.47;;;1.60;;
5493;SDS011;2769;49.864;8.656;2022-09-09T09:57:08;7.50;;;1.70;;
5493;SDS011;2769;49.864;8.656;2022-09-09T09:59:36;2.47;;;1.23;;
5493;SDS011;2769;49.864;8.656;2022-09-09T10:02:15;2.87;;;1.30;;
5493;SDS011;2769;49.864;8.656;2022-09-09T10:04:45;3.83;;;1.20;;
5493;SDS011;2769;49.864;8.656;2022-09-09T10:07:18;5.13;;;1.47;;
5493;SDS011;2769;49.864;8.656;2022-09-09T10:09:48;3.70;;;1.40;;
5493;SDS011;2769;49.864;8.656;2022-09-09T10:12:24;2.70;;;1.17;;
5493;SDS011;2769;49.864;8.656;2022-09-09T10:15:06;3.63;;;1.27;;
5493;SDS011;2769;49.864;8.656;2022-09-09T10:17:49;4.97;;;1.10;;
5493;SDS011;2769;49.864;8.656;2022-09-09T10:20:28;3.33;;;1.30;;
5493;SDS011;2769;49.864;8.656;2022-09-09T10:23:05;4.73;;;1.13;;
5493;SDS011;2769;49.864;8.656;2022-09-09T10:25:45;6.20;;;1.60;;
5493;SDS011;2769;49.864;8.656;2022-09-09T10:28:33;5.30;;;1.60;;
5493;SDS011;2769;49.864;8.656;2022-09-09T10:31:23;9.20;;;1.70;;
5493;SDS011;2769;49.864;8.656;2022-09-09T10:34:00;5.50;;;3.13;;
5493;SDS011;2769;49.864;8.656;2022-09-09T10:36:36;9.97;;;1.70;;
5493;SDS011;2769;49.864;8.656;2022-09-09T10:39:14;13.20;;;1.90;;
5493;SDS011;2769;49.864;8.656;2022-09-09T10:41:54;8.30;;;1.90;;
5493;SDS011;2769;49.864;8.656;2022-09-09T10:44:34;6.20;;;1.83;;
5493;SDS011;2769;49.864;8.656;2022-09-09T10:47:17;15.90;;;2.53;;
5493;SDS011;2769;49.864;8.656;2022-09-09T10:50:22;7.77;;;2.30;;
5493;SDS011;2769;49.864;8.656;2022-09-09T10:53:32;16.00;;;3.03;;
5493;SDS011;2769;49.864;8.656;2022-09-09T10:56:13;4.00;;;1.53;;
5493;SDS011;2769;49.864;8.656;2022-09-09T10:58:47;5.03;;;1.80;;
5493;SDS011;2769;49.864;8.656;2022-09-09T11:01:20;10.53;;;2.53;;
5493;SDS011;2769;49.864;8.656;2022-09-09T11:03:53;5.60;;;1.83;;
5493;SDS011;2769;49.864;8.656;2022-09-09T11:06:28;5.03;;;1.30;;
5493;SDS011;2769;49.864;8.656;2022-09-09T11:09:00;8.47;;;1.50;;
5493;SDS011;2769;49.864;8.656;2022-09-09T11:11:34;6.30;;;1.80;;
5493;SDS011;2769;49.864;8.656;2022-09-09T11:14:09;7.37;;;2.00;;
5493;SDS011;2769;49.864;8.656;2022-09-09T11:16:45;4.87;;;2.00;;
5493;SDS011;2769;49.864;8.656;2022-09-09T11:19:17;5.80;;;1.80;;
5493;SDS011;2769;49.864;8.656;2022-09-09T11:21:53;5.43;;;1.60;;
5493;SDS011;2769;49.864;8.656;2022-09-09T11:24:25;5.27;;;1.87;;
5493;SDS011;2769;49.864;8.656;2022-09-09T11:27:00;6.37;;;1.70;;
5493;SDS011;2769;49.864;8.656;2022-09-09T11:36:20;13.67;;;2.67;;
5493;SDS011;2769;49.864;8.656;2022-09-09T11:39:22;5.33;;;1.50;;
5493;SDS011;2769;49.864;8.656;2022-09-09T11:42:19;5.60;;;1.77;;
5493;SDS011;2769;49.864;8.656;2022-09-09T11:44:49;5.80;;;1.87;;
5493;SDS011;2769;49.864;8.656;2022-09-09T11:47:19;3.57;;;1.73;;
5493;SDS011;2769;49.864;8.656;2022-09-09T11:49:50;5.30;;;1.67;;
5493;SDS011;2769;49.864;8.656;2022-09-09T11:52:23;5.90;;;1.47;;
5493;SDS011;2769;49.864;8.656;2022-09-09T11:54:55;3.60;;;1.80;;
5493;SDS011;2769;49.864;8.656;2022-09-09T11:57:25;2.80;;;1.63;;
5493;SDS011;2769;49.864;8.656;2022-09-09T12:00:03;8.10;;;1.40;;
5493;SDS011;2769;49.864;8.656;2022-09-09T12:02:32;5.10;;;1.50;;
5493;SDS011;2769;49.864;8.656;2022-09-09T12:05:04;7.57;;;1.77;;
5493;SDS011;2769;49.864;8.656;2022-09-09T12:07:36;4.43;;;1.40;;
5493;SDS011;2769;49.864;8.656;2022-09-09T12:10:20;5.40;;;1.57;;
5493;SDS011;2769;49.864;8.656;2022-09-09T12:12:53;10.67;;;2.63;;
5493;SDS011;2769;49.864;8.656;2022-09-09T12:15:25;2.53;;;1.47;;
5493;SDS011;2769;49.864;8.656;2022-09-09T12:17:56;6.90;;;1.40;;
5493;SDS011;2769;49.864;8.656;2022-09-09T12:20:33;2.67;;;1.67;;
5493;SDS011;2769;49.864;8.656;2022-09-09T12:23:13;2.93;;;1.40;;
5493;SDS011;2769;49.864;8.656;2022-09-09T12:25:54;4.00;;;1.50;;
5493;SDS011;2769;49.864;8.656;2022-09-09T12:28:52;7.23;;;1.93;;
5493;SDS011;2769;49.864;8.656;2022-09-09T12:31:27;5.70;;;1.60;;
5493;SDS011;2769;49.864;8.656;2022-09-09T12:34:04;5.93;;;1.47;;
5493;SDS011;2769;49.864;8.656;2022-09-09T12:36:42;5.33;;;1.33;;
5493;SDS011;2769;49.864;8.656;2022-09-09T12:39:27;4.17;;;1.80;;
5493;SDS011;2769;49.864;8.656;2022-09-09T12:42:02;3.00;;;1.70;;
5493;SDS011;2769;49.864;8.656;2022-09-09T12:44:30;4.60;;;2.00;;
5493;SDS011;2769;49.864;8.656;2022-09-09T12:47:00;4.20;;;1.50;;
5493;SDS011;2769;49.864;8.656;2022-09-09T12:49:31;2.97;;;1.47;;
5493;SDS011;2769;49.864;8.656;2022-09-09T12:52:03;5.27;;;1.10;;
5493;SDS011;2769;49.864;8.656;2022-09-09T12:54:34;3.03;;;1.00;;
5493;SDS011;2769;49.864;8.656;2022-09-09T12:57:05;4.67;;;1.10;;
5493;SDS011;2769;49.864;8.656;2022-09-09T12:59:41;0.80;;;0.80;;
5493;SDS011;2769;49.864;8.656;2022-09-09T13:02:20;4.60;;;0.90;;
5493;SDS011;2769;49.864;8.656;2022-09-09T13:04:50;6.47;;;1.50;;
5493;SDS011;2769;49.864;8.656;2022-09-09T13:07:19;2.80;;;1.70;;
5493;SDS011;2769;49.864;8.656;2022-09-09T13:09:48;5.90;;;1.00;;
5493;SDS011;2769;49.864;8.656;2022-09-09T13:12:19;3.93;;;1.10;;
5493;SDS011;2769;49.864;8.656;2022-09-09T13:14:49;4.83;;;1.30;;
5493;SDS011;2769;49.864;8.656;2022-09-09T13:17:20;5.60;;;1.07;;
5493;SDS011;2769;49.864;8.656;2022-09-09T13:19:50;1.40;;;0.87;;
5493;SDS011;2769;49.864;8.656;2022-09-09T13:22:21;5.37;;;1.00;;
5493;SDS011;2769;49.864;8.656;2022-09-09T13:25:02;8.67;;;1.57;;
5493;SDS011;2769;49.864;8.656;2022-09-09T13:27:34;3.90;;;0.70;;
5493;SDS011;2769;49.864;8.656;2022-09-09T13:30:20;1.83;;;0.80;;
5493;SDS011;2769;49.864;8.656;2022-09-09T13:33:00;0.90;;;0.90;;
5493;SDS011;2769;49.864;8.656;2022-09-09T13:35:33;1.37;;;0.90;;
5493;SDS011;2769;49.864;8.656;2022-09-09T13:38:08;1.40;;;0.70;;
5493;SDS011;2769;49.864;8.656;2022-09-09T13:40:37;1.23;;;0.90;;
5493;SDS011;2769;49.864;8.656;2022-09-09T13:43:10;1.13;;;0.80;;
5493;SDS011;2769;49.864;8.656;2022-09-09T13:45:52;0.60;;;0.60;;
5493;SDS011;2769;49.864;8.656;2022-09-09T13:48:22;0.97;;;0.70;;
5493;SDS011;2769;49.864;8.656;2022-09-09T13:50:58;2.03;;;0.70;;
5493;SDS011;2769;49.864;8.656;2022-09-09T13:53:28;2.60;;;0.73;;
5493;SDS011;2769;49.864;8.656;2022-09-09T13:55:57;1.97;;;0.80;;
5493;SDS011;2769;49.864;8.656;2022-09-09T13:58:26;4.97;;;1.23;;
5493;SDS011;2769;49.864;8.656;2022-09-09T14:00:55;1.03;;;1.03;;
5493;SDS011;2769;49.864;8.656;2022-09-09T14:03:23;1.20;;;0.83;;
5493;SDS011;2769;49.864;8.656;2022-09-09T14:05:51;1.10;;;0.90;;
5493;SDS011;2769;49.864;8.656;2022-09-09T14:08:22;2.03;;;1.00;;
5493;SDS011;2769;49.864;8.656;2022-09-09T14:10:52;4.03;;;1.50;;
5493;SDS011;2769;49.864;8.656;2022-09-09T14:13:24;3.73;;;0.90;;
5493;SDS011;2769;49.864;8.656;2022-09-09T14:15:54;1.00;;;0.90;;
5493;SDS011;2769;49.864;8.656;2022-09-09T14:18:22;0.90;;;0.73;;
5493;SDS011;2769;49.864;8.656;2022-09-09T14:20:52;2.80;;;1.00;;
5493;SDS011;2769;49.864;8.656;2022-09-09T14:23:20;2.63;;;1.00;;
5493;SDS011;2769;49.864;8.656;2022-09-09T14:25:51;2.73;;;1.17;;
5493;SDS011;2769;49.864;8.656;2022-09-09T14:28:19;1.23;;;1.00;;
5493;SDS011;2769;49.864;8.656;2022-09-09T14:31:08;3.23;;;1.00;;
5493;SDS011;2769;49.864;8.656;2022-09-09T14:33:37;8.33;;;1.80;;
5493;SDS011;2769;49.864;8.656;2022-09-09T14:36:05;1.20;;;1.10;;
5493;SDS011;2769;49.864;8.656;2022-09-09T14:38:34;4.30;;;1.20;;
5493;SDS011;2769;49.864;8.656;2022-09-09T14:41:06;3.23;;;0.97;;
5493;SDS011;2769;49.864;8.656;2022-09-09T14:43:34;2.10;;;1.00;;
5493;SDS011;2769;49.864;8.656;2022-09-09T14:46:05;4.40;;;1.10;;
5493;SDS011;2769;49.864;8.656;2022-09-09T14:48:35;2.30;;;0.90;;
5493;SDS011;2769;49.864;8.656;2022-09-09T14:51:07;3.33;;;1.07;;
5493;SDS011;2769;49.864;8.656;2022-09-09T14:53:35;2.93;;;1.00;;
5493;SDS011;2769;49.864;8.656;2022-09-09T14:56:05;1.20;;;1.10;;
5493;SDS011;2769;49.864;8.656;2022-09-09T14:58:34;1.33;;;0.80;;
5493;SDS011;2769;49.864;8.656;2022-09-09T15:01:04;1.57;;;1.00;;
5493;SDS011;2769;49.864;8.656;2022-09-09T15:03:33;3.17;;;0.90;;
5493;SDS011;2769;49.864;8.656;2022-09-09T15:06:07;1.10;;;0.90;;
5493;SDS011;2769;49.864;8.656;2022-09-09T15:08:36;4.60;;;0.90;;
5493;SDS011;2769;49.864;8.656;2022-09-09T15:11:09;1.97;;;1.10;;
5493;SDS011;2769;49.864;8.656;2022-09-09T15:13:39;1.17;;;0.80;;
5493;SDS011;2769;49.864;8.656;2022-09-09T15:16:10;2.80;;;1.77;;
5493;SDS011;2769;49.864;8.656;2022-09-09T15:18:41;11.53;;;7.50;;
5493;SDS011;2769;49.864;8.656;2022-09-09T15:21:11;8.20;;;4.07;;
5493;SDS011;2769;49.864;8.656;2022-09-09T15:23:39;34.00;;;23.43;;
5493;SDS011;2769;49.864;8.656;2022-09-09T15:26:08;30.77;;;21.33;;
5493;SDS011;2769;49.864;8.656;2022-09-09T15:28:37;8.23;;;5.77;;
5493;SDS011;2769;49.864;8.656;2022-09-09T15:31:06;34.23;;;19.23;;
5493;SDS011;2769;49.864;8.656;2022-09-09T15:33:37;58.90;;;32.30;;
5493;SDS011;2769;49.864;8.656;2022-09-09T15:36:16;22.10;;;14.10;;
5493;SDS011;2769;49.864;8.656;2022-09-09T15:38:46;19.50;;;11.20;;
5493;SDS011;2769;49.864;8.656;2022-09-09T15:41:14;10.77;;;5.10;;
5493;SDS011;2769;49.864;8.656;2022-09-09T15:43:43;8.50;;;4.53;;
5493;SDS011;2769;49.864;8.656;2022-09-09T15:46:23;21.83;;;11.87;;
5493;SDS011;2769;49.864;8.656;2022-09-09T15:48:56;37.03;;;23.37;;
5493;SDS011;2769;49.864;8.656;2022-09-09T15:51:27;11.93;;;8.93;;
5493;SDS011;2769;49.864;8.656;2022-09-09T15:54:08;38.27;;;24.03;;